Time;durP1;ratioP1;P1;durP2;ratioP2;P2;SDS_P1;SDS_P2;PMS_P1;PMS_P2;Temp;Humidity;BMP_temperature;BMP_pressure;BME280_temperature;BME280_humidity;BME280_pressure;Samples;Min_cycle;Max_cycle;Signal;HPM_P1;HPM_P2
2022/11/08 00:02:03;;;;;;;;;;;;;;;5.43;85.00;100084.84;5033447;28;19925;-72
2022/11/08 00:04:33;;;;;;;;;;;;;;;5.41;85.26;100071.28;5033437;28;19925;-72
2022/11/08 00:14:58;;;;;;;;;;;;;;;5.46;84.61;100080.66;5033368;28;19929;-72
2022/11/08 00:17:28;;;;;;;;;;;;;;;5.47;84.75;100078.16;5033392;28;19960;-71
2022/11/08 00:19:56;;;;;;;;;;;;;;;5.45;84.69;100073.91;5033601;28;19940;-72
2022/11/08 00:22:25;;;;;;;;;;;;;;;5.47;84.55;100082.41;5035313;28;19940;-72
2022/11/08 00:24:53;;;;;;;;;;;;;;;5.47;84.85;100078.16;5036922;28;19972;-71
2022/11/08 00:27:23;;;;;;;;;;;;;;;5.51;85.04;100079.13;5036851;28;19932;-71
2022/11/08 00:29:51;;;;;;;;;;;;;;;5.51;85.15;100084.19;5036764;28;19925;-71
2022/11/08 00:32:22;;;;;;;;;;;;;;;5.47;84.85;100083.22;5036701;28;20367;-72
2022/11/08 00:34:51;;;;;;;;;;;;;;;5.48;85.01;100079.91;5037017;28;19952;-71
2022/11/08 00:37:20;;;;;;;;;;;;;;;5.49;85.12;100085.81;5036640;28;19932;-71
2022/11/08 00:39:48;;;;;;;;;;;;;;;5.50;84.78;100079.91;5036607;28;19964;-72
2022/11/08 00:42:17;;;;;;;;;;;;;;;5.48;84.86;100082.44;5036784;28;19925;-72
2022/11/08 00:44:45;;;;;;;;;;;;;;;5.48;85.42;100084.09;5036483;28;20445;-71
2022/11/08 00:47:13;;;;;;;;;;;;;;;5.43;85.26;100077.25;5036889;28;19925;-72
2022/11/08 00:49:43;;;;;;;;;;;;;;;5.43;85.39;100081.44;5036434;28;19925;-72
2022/11/08 00:52:12;;;;;;;;;;;;;;;5.38;85.25;100083.84;5036675;28;19976;-72
2022/11/08 00:54:40;;;;;;;;;;;;;;;5.35;85.54;100083.78;5036264;28;19979;-72
2022/11/08 00:57:09;;;;;;;;;;;;;;;5.33;84.78;100077.81;5035052;28;19925;-72
2022/11/08 00:59:37;;;;;;;;;;;;;;;5.32;84.92;100077.78;5036480;28;20283;-72
2022/11/08 01:02:06;;;;;;;;;;;;;;;5.33;85.00;100080.34;5036505;28;19929;-71
2022/11/08 01:04:34;;;;;;;;;;;;;;;5.34;85.40;100066.88;5036100;28;19925;-71
2022/11/08 01:07:05;;;;;;;;;;;;;;;5.31;85.62;100066.81;5036114;28;19925;-71
2022/11/08 01:09:33;;;;;;;;;;;;;;;5.30;85.34;100060.00;5036364;28;19933;-72
2022/11/08 01:12:01;;;;;;;;;;;;;;;5.23;85.16;100068.25;5036008;28;19925;-73
2022/11/08 01:14:30;;;;;;;;;;;;;;;5.14;84.90;100062.97;5036174;28;19925;-71
2022/11/08 01:16:59;;;;;;;;;;;;;;;5.06;84.89;100069.47;5035880;28;19932;-71
2022/11/08 01:19:27;;;;;;;;;;;;;;;5.06;84.92;100068.66;5035848;28;19932;-72
2022/11/08 01:21:56;;;;;;;;;;;;;;;5.07;85.12;100071.22;5036150;28;19925;-71
2022/11/08 01:24:25;;;;;;;;;;;;;;;5.09;85.32;100068.72;5035738;28;19925;-72
2022/11/08 01:26:54;;;;;;;;;;;;;;;5.08;85.28;100067.88;5035787;28;19932;-72
2022/11/08 01:29:23;;;;;;;;;;;;;;;5.09;85.00;100067.03;5035753;28;19925;-72
2022/11/08 01:31:51;;;;;;;;;;;;;;;5.06;85.14;100074.53;5035616;28;19926;-71
2022/11/08 01:34:19;;;;;;;;;;;;;;;5.03;85.21;100066.03;5033396;28;19929;-72
2022/11/08 01:36:48;;;;;;;;;;;;;;;5.06;85.25;100064.41;5035852;28;19932;-72
2022/11/08 01:39:16;;;;;;;;;;;;;;;5.01;84.95;100063.47;5034306;28;19929;-71
2022/11/08 01:41:46;;;;;;;;;;;;;;;4.95;84.95;100064.94;5035431;28;19932;-72
2022/11/08 01:44:16;;;;;;;;;;;;;;;4.93;85.10;100056.47;5035445;28;19925;-71
2022/11/08 01:46:45;;;;;;;;;;;;;;;4.88;85.08;100056.34;5035980;28;19932;-73
2022/11/08 01:49:32;;;;;;;;;;;;;;;4.89;85.14;100050.47;5035258;28;19932;-72
2022/11/08 01:52:04;;;;;;;;;;;;;;;4.89;85.20;100060.59;5035569;28;20346;-71
2022/11/08 01:54:35;;;;;;;;;;;;;;;4.89;85.43;100045.44;5035240;28;19964;-72
2022/11/08 01:57:07;;;;;;;;;;;;;;;4.90;85.20;100047.13;5035145;28;19931;-72
2022/11/08 01:59:38;;;;;;;;;;;;;;;4.93;85.33;100052.28;5035704;28;19925;-73
2022/11/08 02:02:08;;;;;;;;;;;;;;;4.95;85.34;100052.31;5035057;28;19929;-72
2022/11/08 02:04:37;;;;;;;;;;;;;;;4.97;85.66;100049.00;5035614;28;20405;-72
2022/11/08 02:07:07;;;;;;;;;;;;;;;5.00;85.65;100051.63;5035133;28;19926;-71
2022/11/08 02:09:37;;;;;;;;;;;;;;;4.99;85.46;100049.91;5035155;28;19925;-71
2022/11/08 02:12:07;;;;;;;;;;;;;;;4.98;85.94;100045.66;5034946;28;19925;-71
2022/11/08 02:14:38;;;;;;;;;;;;;;;4.90;85.77;100047.13;5034884;28;19936;-72
2022/11/08 02:17:08;;;;;;;;;;;;;;;4.90;86.06;100042.06;5034994;28;19967;-71
2022/11/08 02:19:39;;;;;;;;;;;;;;;4.90;86.29;100042.06;5034791;28;19925;-71
2022/11/08 02:22:15;;;;;;;;;;;;;;;4.89;86.11;100037.84;5035266;28;19944;-72
2022/11/08 02:24:46;;;;;;;;;;;;;;;4.90;86.39;100037.00;5033807;28;20003;-73
2022/11/08 02:27:14;;;;;;;;;;;;;;;4.90;86.19;100042.06;5034767;28;20375;-72
2022/11/08 02:29:43;;;;;;;;;;;;;;;4.90;86.18;100037.00;5034544;28;19932;-71
2022/11/08 02:32:11;;;;;;;;;;;;;;;4.82;85.92;100027.50;5034823;28;19925;-71
2022/11/08 02:34:42;;;;;;;;;;;;;;;4.82;86.23;100040.16;5034404;28;20388;-71
2022/11/08 02:37:12;;;;;;;;;;;;;;;4.87;86.29;100031.03;5034612;28;20295;-71
2022/11/08 02:39:41;;;;;;;;;;;;;;;4.83;85.94;100030.06;5034428;28;19929;-71
2022/11/08 02:42:14;;;;;;;;;;;;;;;4.72;85.86;100031.47;5034980;28;19925;-72
2022/11/08 02:44:42;;;;;;;;;;;;;;;4.69;85.92;100034.75;5034325;28;19925;-73
2022/11/08 02:47:11;;;;;;;;;;;;;;;4.69;85.77;100028.84;5034743;28;19925;-72
2022/11/08 02:49:39;;;;;;;;;;;;;;;4.69;85.89;100026.31;5034128;28;19965;-72
2022/11/08 02:52:08;;;;;;;;;;;;;;;4.71;85.98;100020.47;5034214;28;19936;-73
2022/11/08 02:54:36;;;;;;;;;;;;;;;4.70;85.86;100012.88;5034486;28;20016;-72
2022/11/08 02:57:04;;;;;;;;;;;;;;;4.63;86.07;100010.97;5016349;28;20368;-72
2022/11/08 02:59:34;;;;;;;;;;;;;;;4.61;85.82;100017.63;5034076;28;20015;-71
2022/11/08 03:02:03;;;;;;;;;;;;;;;4.61;85.82;100018.50;5034164;28;19929;-71
2022/11/08 03:04:31;;;;;;;;;;;;;;;4.64;85.90;100025.31;5034064;28;19925;-71
2022/11/08 03:07:00;;;;;;;;;;;;;;;4.63;85.53;100016.03;5034331;28;20287;-71
2022/11/08 03:09:28;;;;;;;;;;;;;;;4.65;85.40;100024.50;5033714;28;19984;-71
2022/11/08 03:11:56;;;;;;;;;;;;;;;4.65;85.97;100029.56;5033983;28;19925;-71
2022/11/08 03:14:25;;;;;;;;;;;;;;;4.53;85.50;100016.59;5034536;28;19979;-71
2022/11/08 03:16:55;;;;;;;;;;;;;;;4.48;85.40;100020.66;5033770;28;19940;-71
2022/11/08 03:19:23;;;;;;;;;;;;;;;4.50;85.40;100024.06;5034266;28;19975;-72
2022/11/08 03:21:52;;;;;;;;;;;;;;;4.50;85.61;100024.06;5033842;28;19964;-72
2022/11/08 03:24:22;;;;;;;;;;;;;;;4.50;85.46;100026.59;5034164;28;19929;-72
2022/11/08 03:26:50;;;;;;;;;;;;;;;4.48;85.54;100030.75;5033627;28;19932;-73
2022/11/08 03:29:19;;;;;;;;;;;;;;;4.44;85.61;100024.75;5032483;28;19925;-71
2022/11/08 03:31:47;;;;;;;;;;;;;;;4.30;85.31;100025.16;5033783;28;19925;-71
2022/11/08 03:34:17;;;;;;;;;;;;;;;4.31;85.77;100026.88;5034113;28;19925;-71
2022/11/08 03:36:45;;;;;;;;;;;;;;;4.43;85.82;100019.66;5034055;28;20349;-71
2022/11/08 03:39:14;;;;;;;;;;;;;;;4.46;85.52;100027.34;5033671;28;19925;-71
2022/11/08 03:41:42;;;;;;;;;;;;;;;4.33;85.51;100020.19;5033703;28;19932;-71
2022/11/08 03:44:11;;;;;;;;;;;;;;;4.21;85.44;100019.81;5033652;28;19932;-73
2022/11/08 03:46:39;;;;;;;;;;;;;;;4.15;85.65;100022.19;5033669;28;19925;-72
2022/11/08 03:49:07;;;;;;;;;;;;;;;4.12;85.81;100020.44;5033758;28;19925;-71
2022/11/08 03:51:37;;;;;;;;;;;;;;;4.10;85.81;100016.13;5034209;28;19991;-71
2022/11/08 03:54:06;;;;;;;;;;;;;;;4.00;85.21;100015.88;5033943;28;19929;-71
2022/11/08 03:56:34;;;;;;;;;;;;;;;3.90;85.25;100023.97;5034451;28;19925;-71
2022/11/08 03:59:02;;;;;;;;;;;;;;;3.87;85.74;100026.38;5037325;28;19932;-71
2022/11/08 04:01:31;;;;;;;;;;;;;;;3.85;85.79;100030.53;5037305;28;19939;-73
2022/11/08 04:03:59;;;;;;;;;;;;;;;3.86;85.93;100029.69;5037524;28;19937;-73
2022/11/08 04:06:28;;;;;;;;;;;;;;;3.91;85.88;100025.66;5037518;28;19925;-72
2022/11/08 04:08:59;;;;;;;;;;;;;;;3.82;85.35;100029.56;5037670;28;20378;-73
2022/11/08 04:16:44;;;;;;;;;;;;;;;3.71;85.48;100025.84;5037113;28;19964;-73
2022/11/08 04:21:52;;;;;;;;;;;;;;;3.66;85.95;100033.28;5037089;28;20287;-73
2022/11/08 04:24:22;;;;;;;;;;;;;;;3.59;85.85;100026.31;5037193;28;20294;-73
2022/11/08 04:26:50;;;;;;;;;;;;;;;3.64;86.20;100023.94;5036699;28;19925;-73
2022/11/08 04:29:19;;;;;;;;;;;;;;;3.75;86.20;100023.47;5037246;28;19929;-73
2022/11/08 04:31:47;;;;;;;;;;;;;;;3.77;85.76;100019.31;5036703;28;19925;-71
2022/11/08 04:34:15;;;;;;;;;;;;;;;3.69;85.85;100020.78;5036686;28;19925;-71
2022/11/08 04:36:44;;;;;;;;;;;;;;;3.71;85.66;100016.63;5002800;28;20128;-71
2022/11/08 04:39:12;;;;;;;;;;;;;;;3.66;85.97;100013.09;5037153;28;19932;-71
2022/11/08 04:41:42;;;;;;;;;;;;;;;3.65;85.87;100018.06;5036847;28;19925;-71
2022/11/08 04:44:10;;;;;;;;;;;;;;;3.69;86.17;100018.25;5036580;28;19979;-71
2022/11/08 04:46:39;;;;;;;;;;;;;;;3.79;85.79;100027.78;5052143;28;19929;-71
2022/11/08 04:49:08;;;;;;;;;;;;;;;3.86;85.96;100022.13;5035367;28;19925;-71
2022/11/08 04:51:36;;;;;;;;;;;;;;;3.92;86.15;100019.81;5036391;28;19932;-72
2022/11/08 04:54:06;;;;;;;;;;;;;;;3.94;86.59;100015.66;5036407;28;19925;-71
2022/11/08 04:56:35;;;;;;;;;;;;;;;3.75;86.55;100023.47;5036335;28;19928;-71
2022/11/08 04:59:04;;;;;;;;;;;;;;;3.71;86.23;100016.63;5036495;28;19933;-71
2022/11/08 05:01:38;;;;;;;;;;;;;;;3.75;86.79;100018.41;5036574;28;19925;-71
2022/11/08 05:04:07;;;;;;;;;;;;;;;3.80;86.70;100011.84;5036511;28;19925;-72
2022/11/08 05:06:35;;;;;;;;;;;;;;;3.78;86.46;100021.06;5036134;28;19932;-73
2022/11/08 05:09:04;;;;;;;;;;;;;;;3.72;86.30;100013.28;5034865;28;19931;-73
2022/11/08 05:11:33;;;;;;;;;;;;;;;3.72;86.38;100020.84;5036332;28;19925;-73
2022/11/08 05:14:01;;;;;;;;;;;;;;;3.72;86.46;100013.28;5018196;28;20322;-71
2022/11/08 05:16:31;;;;;;;;;;;;;;;3.55;85.73;100019.44;5036300;28;19929;-71
2022/11/08 05:19:00;;;;;;;;;;;;;;;3.47;86.22;100015.81;5036005;28;19929;-71
2022/11/08 05:24:08;;;;;;;;;;;;;;;3.49;86.10;100013.34;5036251;28;19925;-72
2022/11/08 05:26:38;;;;;;;;;;;;;;;3.42;85.95;100011.44;5034542;28;20387;-71
2022/11/08 05:29:06;;;;;;;;;;;;;;;3.44;86.63;100008.16;5035675;28;19926;-71
2022/11/08 05:31:36;;;;;;;;;;;;;;;3.44;86.51;100015.72;5035909;28;19925;-71
2022/11/08 05:34:06;;;;;;;;;;;;;;;3.33;85.79;100022.09;5035668;28;19975;-71
2022/11/08 05:36:34;;;;;;;;;;;;;;;3.35;86.18;100025.50;5035858;28;19988;-71
2022/11/08 05:39:02;;;;;;;;;;;;;;;3.36;85.77;100027.22;5035521;28;19925;-71
2022/11/08 05:41:31;;;;;;;;;;;;;;;3.29;86.27;100030.34;5035950;28;19925;-73
2022/11/08 05:43:59;;;;;;;;;;;;;;;3.28;86.12;100031.16;5035430;28;19925;-71
2022/11/08 05:46:28;;;;;;;;;;;;;;;3.23;86.41;100027.63;5035415;28;19925;-71
2022/11/08 05:48:58;;;;;;;;;;;;;;;3.15;85.69;100029.88;5035269;28;19933;-71
2022/11/08 05:51:26;;;;;;;;;;;;;;;3.19;86.29;100031.69;5035836;28;19925;-71
2022/11/08 05:53:55;;;;;;;;;;;;;;;3.24;85.66;100031.84;5035618;28;19925;-71
2022/11/08 05:56:23;;;;;;;;;;;;;;;3.28;85.99;100028.63;5035754;28;19925;-71
2022/11/08 05:58:51;;;;;;;;;;;;;;;3.32;85.80;100025.41;5035720;28;20031;-71
2022/11/08 06:01:20;;;;;;;;;;;;;;;3.25;85.91;100028.53;5035094;28;19925;-73
2022/11/08 06:03:48;;;;;;;;;;;;;;;3.25;86.05;100034.44;5035274;28;19925;-72
2022/11/08 06:06:19;;;;;;;;;;;;;;;3.34;86.37;100036.41;5035005;28;19971;-73
2022/11/08 06:08:48;;;;;;;;;;;;;;;3.31;86.70;100038.84;5034937;28;19925;-71
2022/11/08 06:11:21;;;;;;;;;;;;;;;3.35;86.31;100030.56;5034988;28;19932;-73
2022/11/08 06:13:49;;;;;;;;;;;;;;;3.39;86.77;100029.84;5035207;28;19925;-71
2022/11/08 06:16:19;;;;;;;;;;;;;;;3.48;86.58;100037.72;5035045;28;20035;-73
2022/11/08 06:18:47;;;;;;;;;;;;;;;3.45;86.25;100036.78;5035249;28;20287;-71
2022/11/08 06:21:16;;;;;;;;;;;;;;;3.40;86.09;100024.00;5034459;28;20020;-71
2022/11/08 06:23:46;;;;;;;;;;;;;;;3.39;86.14;100039.94;5034954;28;20338;-71
2022/11/08 06:26:14;;;;;;;;;;;;;;;3.43;86.55;100043.44;5034307;28;19932;-71
2022/11/08 06:28:43;;;;;;;;;;;;;;;3.59;86.48;100041.47;5034533;28;19975;-71
2022/11/08 06:31:11;;;;;;;;;;;;;;;3.84;86.31;100043.94;5034387;28;19940;-71
2022/11/08 06:33:39;;;;;;;;;;;;;;;4.06;86.82;100046.34;5034505;28;20012;-71
2022/11/08 06:36:08;;;;;;;;;;;;;;;4.20;86.90;100048.44;5034422;28;19925;-71
2022/11/08 06:38:36;;;;;;;;;;;;;;;4.21;86.57;100040.03;5035110;28;20015;-71
2022/11/08 06:41:06;;;;;;;;;;;;;;;4.39;86.82;100045.66;5034936;28;19948;-71
2022/11/08 06:43:34;;;;;;;;;;;;;;;4.56;86.89;100040.25;5034665;28;19941;-71
2022/11/08 06:46:02;;;;;;;;;;;;;;;4.61;86.45;100042.91;5034607;28;19947;-71
2022/11/08 06:48:31;;;;;;;;;;;;;;;4.71;86.58;100053.34;5034748;28;19971;-73
2022/11/08 06:51:03;;;;;;;;;;;;;;;4.87;86.23;100051.25;5034146;28;19929;-72
2022/11/08 06:53:32;;;;;;;;;;;;;;;4.99;86.66;100057.47;5034391;28;19929;-71
2022/11/08 06:56:00;;;;;;;;;;;;;;;4.94;86.01;100056.53;5034144;28;19971;-71
2022/11/08 06:58:30;;;;;;;;;;;;;;;5.05;86.38;100061.84;5034064;28;19925;-71
2022/11/08 07:01:02;;;;;;;;;;;;;;;5.27;86.17;100059.09;5034018;28;19930;-72
2022/11/08 07:03:31;;;;;;;;;;;;;;;5.42;86.17;100062.88;5034730;28;20333;-71
2022/11/08 07:06:01;;;;;;;;;;;;;;;5.55;86.02;100055.59;5033919;28;19925;-71
2022/11/08 07:08:30;;;;;;;;;;;;;;;5.67;85.81;100060.94;5034031;28;19925;-71
2022/11/08 07:10:59;;;;;;;;;;;;;;;5.82;86.11;100067.25;5033776;28;19957;-71
2022/11/08 07:13:27;;;;;;;;;;;;;;;5.96;86.21;100070.16;5034134;28;20338;-71
2022/11/08 07:15:59;;;;;;;;;;;;;;;6.06;85.99;100056.88;5034248;28;20310;-71
2022/11/08 07:18:28;;;;;;;;;;;;;;;6.23;85.61;100060.66;5034397;28;19932;-71
2022/11/08 07:21:00;;;;;;;;;;;;;;;6.40;85.86;100056.84;5034483;28;19964;-70
2022/11/08 07:23:30;;;;;;;;;;;;;;;6.57;86.10;100058.06;5034148;28;19925;-71
2022/11/08 07:26:00;;;;;;;;;;;;;;;6.68;85.63;100061.66;5033579;28;19925;-71
2022/11/08 07:28:28;;;;;;;;;;;;;;;6.81;85.39;100064.44;5033783;28;19925;-71
2022/11/08 07:30:59;;;;;;;;;;;;;;;6.91;84.96;100063.81;5033628;28;19925;-71
2022/11/08 07:33:28;;;;;;;;;;;;;;;6.98;84.55;100068.19;5037968;28;19925;-70
2022/11/08 07:35:56;;;;;;;;;;;;;;;7.10;85.62;100070.97;5037789;28;19926;-71
2022/11/08 07:38:25;;;;;;;;;;;;;;;7.20;85.33;100077.91;5037741;28;19925;-71
2022/11/08 07:40:55;;;;;;;;;;;;;;;7.29;84.81;100070.47;5036505;28;19925;-71
2022/11/08 07:43:24;;;;;;;;;;;;;;;7.39;85.17;100069.78;5037637;28;19956;-71
2022/11/08 07:46:01;;;;;;;;;;;;;;;7.49;84.42;100066.59;5037613;28;19931;-71
2022/11/08 07:48:30;;;;;;;;;;;;;;;7.61;84.35;100073.56;5036446;28;19929;-70
2022/11/08 07:50:59;;;;;;;;;;;;;;;7.76;84.53;100069.63;5037493;28;19925;-70
2022/11/08 07:53:27;;;;;;;;;;;;;;;7.81;84.90;100065.47;5037745;28;19925;-71
2022/11/08 07:55:57;;;;;;;;;;;;;;;7.95;84.32;100074.16;5037967;28;20008;-71
2022/11/08 07:58:25;;;;;;;;;;;;;;;7.98;83.92;100058.97;5037660;28;19968;-71
2022/11/08 08:00:53;;;;;;;;;;;;;;;8.04;84.04;100064.13;5037270;28;19925;-71
2022/11/08 08:03:23;;;;;;;;;;;;;;;8.17;83.50;100059.25;5037054;28;19926;-71
2022/11/08 08:05:53;;;;;;;;;;;;;;;8.18;83.44;100061.81;5028237;28;19925;-70
2022/11/08 08:08:28;;;;;;;;;;;;;;;8.25;83.42;100070.41;5037290;28;20012;-71
2022/11/08 08:10:57;;;;;;;;;;;;;;;8.37;83.26;100055.34;5035569;28;19933;-71
2022/11/08 08:13:25;;;;;;;;;;;;;;;8.46;83.28;100052.91;5036962;28;19925;-71
2022/11/08 08:15:56;;;;;;;;;;;;;;;8.56;83.29;100057.31;5037117;28;19932;-71
2022/11/08 08:18:26;;;;;;;;;;;;;;;8.68;83.22;100054.91;5036991;28;19932;-71
2022/11/08 08:20:55;;;;;;;;;;;;;;;8.83;83.25;100050.00;5036951;28;19925;-71
2022/11/08 08:23:23;;;;;;;;;;;;;;;8.97;82.68;100056.13;5036868;28;19944;-71
2022/11/08 08:25:52;;;;;;;;;;;;;;;9.11;82.33;100049.50;5036848;28;20330;-71
2022/11/08 08:28:20;;;;;;;;;;;;;;;9.20;82.23;100046.19;5037143;28;20295;-71
2022/11/08 08:30:48;;;;;;;;;;;;;;;9.35;82.51;100047.22;5036952;28;19932;-70
2022/11/08 08:33:18;;;;;;;;;;;;;;;9.43;81.83;100043.03;5036798;28;19925;-70
2022/11/08 08:36:04;;;;;;;;;;;;;;;9.48;81.21;100042.25;5036661;28;19926;-70
2022/11/08 08:38:33;;;;;;;;;;;;;;;9.63;81.49;100042.34;5035792;28;19975;-70
2022/11/08 08:41:07;;;;;;;;;;;;;;;9.78;81.12;100032.31;5035918;28;19925;-70
2022/11/08 08:43:35;;;;;;;;;;;;;;;9.79;81.02;100034.03;5035938;28;19932;-70
2022/11/08 08:46:05;;;;;;;;;;;;;;;9.96;80.94;100038.38;5036707;28;19955;-70
2022/11/08 08:48:34;;;;;;;;;;;;;;;10.12;80.74;100031.75;5036424;28;19936;-70
2022/11/08 08:51:04;;;;;;;;;;;;;;;10.16;80.58;100020.72;5036687;28;19925;-70
2022/11/08 08:53:32;;;;;;;;;;;;;;;10.17;80.64;100035.19;5036365;28;19971;-70
2022/11/08 08:56:04;;;;;;;;;;;;;;;10.25;80.88;100030.09;5036317;28;19925;-70
2022/11/08 08:58:32;;;;;;;;;;;;;;;10.37;80.36;100036.13;5036625;28;19929;-70
2022/11/08 09:01:01;;;;;;;;;;;;;;;10.42;80.64;100037.03;5036243;28;20367;-70
2022/11/08 09:03:50;;;;;;;;;;;;;;;10.45;80.41;100037.03;5035966;28;20364;-70
2022/11/08 09:06:19;;;;;;;;;;;;;;;10.44;80.46;100042.97;5036437;28;19925;-70
2022/11/08 09:08:48;;;;;;;;;;;;;;;10.47;80.69;100032.81;5036047;28;19931;-70
2022/11/08 09:11:16;;;;;;;;;;;;;;;10.51;80.31;100039.63;5035709;28;19964;-70
2022/11/08 09:13:45;;;;;;;;;;;;;;;10.55;80.58;100043.91;5032669;28;19926;-70
2022/11/08 09:16:13;;;;;;;;;;;;;;;10.66;80.60;100044.81;5024965;28;19949;-70
2022/11/08 09:18:42;;;;;;;;;;;;;;;10.81;80.58;100038.06;5022022;28;19929;-70
2022/11/08 09:21:10;;;;;;;;;;;;;;;11.10;80.64;100039.00;5035285;28;19932;-70
2022/11/08 09:23:41;;;;;;;;;;;;;;;11.28;80.27;100047.56;5029272;28;19932;-70
2022/11/08 09:26:10;;;;;;;;;;;;;;;11.33;80.12;100045.03;5021040;28;19925;-70
2022/11/08 09:28:38;;;;;;;;;;;;;;;11.47;79.47;100043.34;5031196;28;19925;-69
2022/11/08 09:31:07;;;;;;;;;;;;;;;11.64;79.39;100040.78;5035454;28;19933;-69
2022/11/08 09:33:36;;;;;;;;;;;;;;;11.67;78.96;100046.78;5035738;28;19971;-70
2022/11/08 09:36:05;;;;;;;;;;;;;;;11.72;78.56;100045.13;5035082;28;19987;-69
2022/11/08 09:38:34;;;;;;;;;;;;;;;11.80;78.21;100042.56;5035566;28;19929;-69
2022/11/08 09:41:13;;;;;;;;;;;;;;;11.80;78.18;100042.56;5035400;28;19925;-70
2022/11/08 09:43:57;;;;;;;;;;;;;;;11.88;78.14;100041.69;5035424;28;19951;-70
2022/11/08 09:46:31;;;;;;;;;;;;;;;12.08;78.08;100040.00;5027008;28;19925;-70
2022/11/08 09:49:01;;;;;;;;;;;;;;;12.27;77.49;100034.84;5035658;28;19925;-70
2022/11/08 09:51:31;;;;;;;;;;;;;;;12.40;77.10;100029.72;5035306;28;19925;-69
2022/11/08 09:54:00;;;;;;;;;;;;;;;12.44;76.49;100030.53;5035181;28;20315;-70
2022/11/08 09:56:30;;;;;;;;;;;;;;;12.40;76.74;100026.28;5035229;28;19932;-70
2022/11/08 09:59:01;;;;;;;;;;;;;;;12.50;76.44;100020.28;5035054;28;20360;-70
2022/11/08 10:01:32;;;;;;;;;;;;;;;12.76;76.33;100021.03;5035511;28;19925;-70
2022/11/08 10:04:03;;;;;;;;;;;;;;;13.04;76.60;100017.47;5034705;28;20307;-70
2022/11/08 10:06:42;;;;;;;;;;;;;;;13.24;75.95;100022.53;5035052;28;19929;-70
2022/11/08 10:09:22;;;;;;;;;;;;;;;13.31;75.21;100026.75;5034853;28;19925;-70
2022/11/08 10:12:00;;;;;;;;;;;;;;;13.40;74.55;100027.56;5034759;28;19925;-70
2022/11/08 10:14:37;;;;;;;;;;;;;;;13.54;73.94;100024.03;5035443;28;20291;-70
2022/11/08 10:17:30;;;;;;;;;;;;;;;13.67;73.36;100020.53;5034792;28;19925;-70
2022/11/08 10:20:05;;;;;;;;;;;;;;;13.64;72.80;100021.41;5034795;28;20276;-70
2022/11/08 10:22:42;;;;;;;;;;;;;;;13.73;72.45;100016.19;5032770;28;20299;-70
2022/11/08 10:25:17;;;;;;;;;;;;;;;13.93;72.31;100001.47;5021349;28;20392;-70
2022/11/08 10:27:46;;;;;;;;;;;;;;;13.98;71.66;100006.56;5015152;28;20376;-70
2022/11/08 10:30:18;;;;;;;;;;;;;;;14.14;71.61;100005.56;5015398;28;19926;-71
2022/11/08 10:32:48;;;;;;;;;;;;;;;14.22;71.29;100001.19;5014691;28;19926;-70
2022/11/08 10:35:21;;;;;;;;;;;;;;;14.18;70.43;100004.66;5015312;28;19926;-70
2022/11/08 10:37:51;;;;;;;;;;;;;;;14.30;70.42;99999.41;5014606;28;19926;-70
2022/11/08 10:40:25;;;;;;;;;;;;;;;14.45;70.21;99999.25;5014932;28;19926;-70
2022/11/08 10:42:56;;;;;;;;;;;;;;;14.53;70.01;99992.31;5014639;28;19935;-70
2022/11/08 10:45:24;;;;;;;;;;;;;;;14.54;69.44;99988.88;5026389;28;19964;-70
2022/11/08 10:47:53;;;;;;;;;;;;;;;14.57;69.10;99983.72;5050054;28;20279;-69
2022/11/08 10:50:31;;;;;;;;;;;;;;;14.69;69.26;99983.56;5034280;28;19929;-70
2022/11/08 10:53:00;;;;;;;;;;;;;;;14.82;68.94;99983.41;5033870;28;20394;-70
2022/11/08 10:55:32;;;;;;;;;;;;;;;14.84;68.41;99984.22;5034194;28;19932;-70
2022/11/08 10:58:00;;;;;;;;;;;;;;;14.90;68.05;99986.72;5035103;28;19975;-70
2022/11/08 11:00:29;;;;;;;;;;;;;;;14.96;67.90;99986.63;5049096;28;20028;-71
2022/11/08 11:02:59;;;;;;;;;;;;;;;15.07;67.61;99980.47;5027703;28;20275;-70
2022/11/08 11:05:32;;;;;;;;;;;;;;;15.18;67.31;99977.75;5028721;28;19932;-70
2022/11/08 11:08:13;;;;;;;;;;;;;;;15.11;67.23;99977.00;5034162;28;19931;-70
2022/11/08 11:10:42;;;;;;;;;;;;;;;15.15;67.14;99977.78;5034020;28;19925;-69
2022/11/08 11:13:12;;;;;;;;;;;;;;;15.26;67.14;99976.75;5033962;28;19933;-70
2022/11/08 11:15:45;;;;;;;;;;;;;;;15.33;66.84;99969.81;5033987;28;19925;-70
2022/11/08 11:18:19;;;;;;;;;;;;;;;15.33;66.46;99964.69;5033955;28;19925;-70
2022/11/08 11:20:59;;;;;;;;;;;;;;;15.35;66.94;99965.50;5033903;28;19925;-70
2022/11/08 11:23:32;;;;;;;;;;;;;;;15.42;66.33;99967.09;5033804;28;19925;-70
2022/11/08 11:26:01;;;;;;;;;;;;;;;15.36;66.23;99959.47;5033879;28;19975;-71
2022/11/08 11:28:29;;;;;;;;;;;;;;;15.38;66.20;99960.28;5033762;28;19925;-71
2022/11/08 11:31:01;;;;;;;;;;;;;;;15.44;65.87;99955.06;5033693;28;19952;-71
2022/11/08 11:33:32;;;;;;;;;;;;;;;15.51;66.01;99960.97;5033709;28;19925;-70
2022/11/08 11:36:06;;;;;;;;;;;;;;;15.64;65.72;99953.06;5033909;28;20012;-71
2022/11/08 11:38:44;;;;;;;;;;;;;;;15.66;64.97;99956.44;5034148;28;19925;-71
2022/11/08 11:41:14;;;;;;;;;;;;;;;15.64;64.63;99947.91;5033193;28;19940;-70
2022/11/08 11:43:47;;;;;;;;;;;;;;;15.77;64.46;99957.09;5033598;28;19929;-71
2022/11/08 11:46:20;;;;;;;;;;;;;;;15.77;64.11;99954.53;5033941;28;20446;-70
2022/11/08 11:48:52;;;;;;;;;;;;;;;15.90;64.00;99956.03;5033622;28;19925;-70
2022/11/08 11:51:23;;;;;;;;;;;;;;;15.92;63.64;99941.38;5034210;28;20370;-70
2022/11/08 11:53:51;;;;;;;;;;;;;;;15.96;63.68;99934.44;5033479;28;19926;-70
2022/11/08 11:56:30;;;;;;;;;;;;;;;15.99;63.62;99927.53;5033367;28;19925;-70
2022/11/08 11:59:14;;;;;;;;;;;;;;;16.08;63.77;99929.91;5033477;28;19967;-71
2022/11/08 12:01:51;;;;;;;;;;;;;;;16.15;63.61;99922.09;5018671;28;19956;-71
2022/11/08 12:04:28;;;;;;;;;;;;;;;16.17;63.19;99917.75;5013769;28;19980;-70
2022/11/08 12:07:02;;;;;;;;;;;;;;;16.26;63.12;99917.56;5014108;28;19926;-70
2022/11/08 12:09:42;;;;;;;;;;;;;;;16.23;63.01;99907.31;5014531;28;19948;-70
2022/11/08 12:12:17;;;;;;;;;;;;;;;16.20;62.77;99902.22;5013749;28;19926;-71
2022/11/08 12:14:55;;;;;;;;;;;;;;;16.14;63.00;99902.34;5022873;28;19935;-71
2022/11/08 12:17:31;;;;;;;;;;;;;;;16.03;62.92;99899.97;5030825;28;19931;-72
2022/11/08 12:20:06;;;;;;;;;;;;;;;15.94;63.25;99901.00;5052118;28;19944;-72
2022/11/08 12:22:48;;;;;;;;;;;;;;;15.95;63.65;99897.56;5036452;28;19925;-71
2022/11/08 12:25:20;;;;;;;;;;;;;;;16.00;63.43;99885.44;5035154;28;19948;-74
2022/11/08 12:27:51;;;;;;;;;;;;;;;15.94;63.75;99890.72;5035424;28;20039;-71
2022/11/08 12:30:21;;;;;;;;;;;;;;;15.95;63.88;99882.13;5036266;28;19968;-72
2022/11/08 12:32:59;;;;;;;;;;;;;;;15.96;63.76;99878.66;5036065;28;19929;-70
2022/11/08 12:35:34;;;;;;;;;;;;;;;15.98;63.21;99882.06;5032910;28;19969;-70
2022/11/08 12:38:11;;;;;;;;;;;;;;;16.00;63.05;99872.56;5018002;28;19930;-71
2022/11/08 12:40:45;;;;;;;;;;;;;;;16.07;62.73;99871.59;5036273;28;19964;-72
2022/11/08 12:43:21;;;;;;;;;;;;;;;15.98;62.59;99871.75;5036356;28;20375;-71
2022/11/08 12:45:55;;;;;;;;;;;;;;;16.03;62.35;99871.66;5035122;28;20379;-71
2022/11/08 12:48:32;;;;;;;;;;;;;;;16.12;62.32;99873.22;5036437;28;20323;-72
2022/11/08 12:51:05;;;;;;;;;;;;;;;16.07;62.21;99869.03;5036538;28;20290;-71
2022/11/08 12:53:47;;;;;;;;;;;;;;;15.99;62.18;99876.03;5036382;28;19925;-72
2022/11/08 12:56:19;;;;;;;;;;;;;;;15.97;62.34;99867.50;5036346;28;19925;-71
2022/11/08 12:58:49;;;;;;;;;;;;;;;16.04;62.51;99876.78;5036336;28;19941;-71
2022/11/08 13:01:18;;;;;;;;;;;;;;;16.02;62.68;99868.25;5036436;28;19929;-71
2022/11/08 13:03:57;;;;;;;;;;;;;;;16.02;62.86;99877.69;5036170;28;19972;-72
2022/11/08 13:06:38;;;;;;;;;;;;;;;15.92;63.00;99866.75;5036071;28;19925;-72
2022/11/08 13:09:12;;;;;;;;;;;;;;;15.86;63.24;99874.56;5036467;28;19947;-71
2022/11/08 13:11:44;;;;;;;;;;;;;;;15.79;63.33;99875.56;5036656;28;20019;-71
2022/11/08 13:14:14;;;;;;;;;;;;;;;15.68;63.57;99867.19;5032848;28;20387;-71
2022/11/08 13:16:43;;;;;;;;;;;;;;;15.58;63.93;99864.81;5034852;28;19963;-72
2022/11/08 13:19:23;;;;;;;;;;;;;;;15.41;64.25;99859.94;5036310;28;19925;-72
2022/11/08 13:21:51;;;;;;;;;;;;;;;15.36;64.59;99864.31;5035801;28;19926;-71